createdAt,value
2019-03-21T00:01:56.009Z,27.00
2019-03-21T00:04:30.490Z,27.10
2019-03-21T00:07:06.077Z,27.10
2019-03-21T00:09:42.150Z,27.10
2019-03-21T00:12:15.452Z,27.00
2019-03-21T00:14:56.248Z,27.00
2019-03-21T00:17:31.088Z,26.90
2019-03-21T00:20:05.836Z,26.90
2019-03-21T00:22:39.185Z,26.80
2019-03-21T00:25:14.169Z,26.80
2019-03-21T00:27:48.682Z,26.80
2019-03-21T00:30:23.758Z,26.80
2019-03-21T00:32:56.479Z,26.90
2019-03-21T00:35:30.746Z,26.90
2019-03-21T00:38:03.448Z,27.00
2019-03-21T00:40:55.885Z,27.10
2019-03-21T00:43:29.032Z,27.10
2019-03-21T00:46:02.068Z,27.30
2019-03-21T00:48:36.800Z,27.40
2019-03-21T00:51:11.796Z,27.50
2019-03-21T00:53:45.761Z,27.50
2019-03-21T00:56:20.557Z,27.50
2019-03-21T00:58:54.542Z,27.50
2019-03-21T01:01:28.766Z,27.60
2019-03-21T01:04:04.526Z,27.60
2019-03-21T01:06:39.400Z,27.70
2019-03-21T01:09:15.667Z,27.70
2019-03-21T01:11:48.553Z,27.70
2019-03-21T01:14:29.360Z,27.70
2019-03-21T01:16:55.215Z,27.80
2019-03-21T01:19:26.709Z,27.80
2019-03-21T01:22:06.250Z,27.80
2019-03-21T01:24:38.959Z,27.90
2019-03-21T01:27:11.579Z,28.00
2019-03-21T01:29:44.969Z,28.10
2019-03-21T01:32:16.823Z,28.20
2019-03-21T01:34:53.440Z,28.40
2019-03-21T01:37:28.073Z,28.50
2019-03-21T01:40:01.591Z,28.60
2019-03-21T01:42:34.455Z,28.60
2019-03-21T01:45:09.349Z,28.70
2019-03-21T01:47:42.263Z,28.80
2019-03-21T01:50:17.377Z,28.80
2019-03-21T01:52:53.461Z,28.90
2019-03-21T01:55:25.162Z,29.00
2019-03-21T01:57:56.742Z,29.10
2019-03-21T02:00:32.086Z,29.10
2019-03-21T02:03:03.766Z,29.20
2019-03-21T02:05:38.693Z,29.30
2019-03-21T02:08:11.359Z,29.40
2019-03-21T02:10:45.773Z,29.50
2019-03-21T02:13:21.527Z,29.60
2019-03-21T02:16:00.073Z,29.70
2019-03-21T02:18:31.265Z,29.80
2019-03-21T02:21:06.121Z,29.90
2019-03-21T02:23:39.642Z,30.00
2019-03-21T02:26:11.504Z,30.10
2019-03-21T02:28:44.161Z,30.20
2019-03-21T02:31:21.890Z,30.40
2019-03-21T02:33:54.654Z,30.50
2019-03-21T02:36:27.376Z,30.60
2019-03-21T02:39:05.214Z,30.70
2019-03-21T02:41:37.902Z,30.80
2019-03-21T02:44:09.570Z,30.90
2019-03-21T02:46:42.759Z,31.00
2019-03-21T02:49:17.162Z,31.10
2019-03-21T02:51:50.171Z,31.20
2019-03-21T02:54:25.054Z,31.30
2019-03-21T02:56:59.560Z,31.40
2019-03-21T02:59:35.547Z,31.50
2019-03-21T03:02:08.321Z,31.60
2019-03-21T03:04:45.047Z,31.80
2019-03-21T03:07:19.870Z,31.90
2019-03-21T03:09:54.227Z,32.00
2019-03-21T03:12:27.099Z,32.10
2019-03-21T03:15:02.831Z,32.20
2019-03-21T03:17:41.238Z,32.30
2019-03-21T03:20:18.932Z,32.40
2019-03-21T03:22:51.932Z,32.50
2019-03-21T03:25:26.594Z,32.70
2019-03-21T03:28:03.247Z,32.80
2019-03-21T03:30:36.227Z,33.00
2019-03-21T03:33:12.871Z,33.10
2019-03-21T03:35:45.279Z,33.20
2019-03-21T03:38:16.898Z,33.30
2019-03-21T03:40:49.352Z,33.40
2019-03-21T03:43:26.909Z,33.50
2019-03-21T03:46:01.795Z,33.60
2019-03-21T03:48:34.657Z,33.50
2019-03-21T03:51:07.542Z,33.60
2019-03-21T03:53:42.426Z,33.80
2019-03-21T03:56:16.152Z,34.00
2019-03-21T03:58:54.090Z,34.10
2019-03-21T04:01:25.830Z,34.30
2019-03-21T04:04:00.369Z,34.50
2019-03-21T04:06:31.952Z,34.70
2019-03-21T04:09:09.518Z,34.80
2019-03-21T04:11:45.915Z,34.80
2019-03-21T04:14:17.337Z,34.80
2019-03-21T04:16:51.101Z,34.80
2019-03-21T04:19:26.025Z,34.80
2019-03-21T04:21:58.763Z,35.00
2019-03-21T04:24:36.324Z,35.10
2019-03-21T04:27:10.220Z,35.40
2019-03-21T04:29:50.621Z,35.50
2019-03-21T04:32:23.563Z,35.70
2019-03-21T04:34:57.516Z,35.90
2019-03-21T04:37:29.276Z,36.00
2019-03-21T04:40:04.736Z,36.20
2019-03-21T04:42:37.586Z,36.30
2019-03-21T04:45:12.516Z,36.50
2019-03-21T04:47:45.462Z,36.50
2019-03-21T04:50:34.730Z,36.50
2019-03-21T04:53:09.449Z,36.50
2019-03-21T04:55:42.824Z,36.50
2019-03-21T04:58:15.386Z,36.60
2019-03-21T05:00:51.051Z,36.60
2019-03-21T05:03:31.187Z,36.70
2019-03-21T05:06:04.322Z,36.80
2019-03-21T05:08:35.882Z,36.90
2019-03-21T05:11:08.367Z,36.90
2019-03-21T05:13:41.371Z,37.10
2019-03-21T05:16:15.031Z,37.20
2019-03-21T05:18:52.228Z,37.30
2019-03-21T05:21:30.382Z,37.30
2019-03-21T05:24:01.993Z,37.30
2019-03-21T05:26:37.409Z,37.30
2019-03-21T05:29:09.135Z,37.40
2019-03-21T05:31:42.224Z,37.60
2019-03-21T05:34:16.816Z,37.80
2019-03-21T05:36:50.535Z,37.90
2019-03-21T05:39:27.482Z,38.00
2019-03-21T05:41:59.138Z,38.00
2019-03-21T05:44:36.376Z,38.00
2019-03-21T05:47:09.311Z,38.10
2019-03-21T05:49:42.225Z,38.20
2019-03-21T05:52:20.673Z,38.40
2019-03-21T05:54:53.381Z,38.50
2019-03-21T05:57:28.878Z,38.70
2019-03-21T06:00:07.706Z,38.80
2019-03-21T06:02:40.955Z,39.00
2019-03-21T06:05:15.673Z,39.10
2019-03-21T06:07:51.194Z,39.30
2019-03-21T06:10:23.943Z,39.30
2019-03-21T06:12:56.735Z,39.40
2019-03-21T06:15:30.897Z,39.30
2019-03-21T06:18:23.289Z,39.30
2019-03-21T06:21:18.356Z,39.10
2019-03-21T06:24:03.661Z,39.10
2019-03-21T06:26:37.756Z,38.90
2019-03-21T06:29:10.187Z,38.80
2019-03-21T06:31:43.003Z,38.70
2019-03-21T06:34:16.190Z,38.60
2019-03-21T06:36:51.129Z,38.60
2019-03-21T06:39:24.319Z,38.60
2019-03-21T06:41:57.327Z,38.80
2019-03-21T06:44:30.424Z,38.90
2019-03-21T06:47:02.388Z,39.10
2019-03-21T06:49:36.383Z,39.20
2019-03-21T06:52:12.574Z,39.10
2019-03-21T06:54:51.786Z,39.00
2019-03-21T06:57:27.633Z,38.80
2019-03-21T07:00:00.672Z,38.70
2019-03-21T07:02:35.568Z,38.70
2019-03-21T07:05:09.594Z,38.70
2019-03-21T07:07:41.167Z,38.70
2019-03-21T07:10:16.295Z,38.70
2019-03-21T07:12:51.203Z,38.90
2019-03-21T07:15:23.791Z,39.00
2019-03-21T07:17:58.679Z,38.90
2019-03-21T07:20:31.403Z,39.00
2019-03-21T07:23:04.109Z,39.10
2019-03-21T07:25:41.705Z,39.10
2019-03-21T07:28:16.547Z,39.10
2019-03-21T07:30:52.078Z,39.10
2019-03-21T07:33:28.031Z,39.20
2019-03-21T07:36:02.687Z,39.40
2019-03-21T07:38:37.050Z,39.50
2019-03-21T07:41:08.282Z,39.60
2019-03-21T07:43:40.970Z,39.60
2019-03-21T07:46:13.549Z,39.70
2019-03-21T07:48:49.837Z,39.80
2019-03-21T07:51:22.418Z,39.80
2019-03-21T07:54:02.615Z,39.80
2019-03-21T07:56:39.934Z,39.60
2019-03-21T07:59:18.247Z,39.40
2019-03-21T08:01:51.946Z,39.10
2019-03-21T08:04:23.539Z,39.00
2019-03-21T08:06:56.070Z,38.90
2019-03-21T08:09:32.138Z,39.10
2019-03-21T08:12:04.613Z,39.10
2019-03-21T08:14:36.262Z,39.00
2019-03-21T08:17:09.096Z,38.80
2019-03-21T08:19:41.812Z,38.60
2019-03-21T08:22:14.640Z,38.40
2019-03-21T08:24:46.403Z,38.20
2019-03-21T08:27:22.422Z,38.10
2019-03-21T08:29:58.863Z,37.90
2019-03-21T08:32:30.645Z,37.80
2019-03-21T08:35:05.179Z,37.70
2019-03-21T08:37:38.170Z,37.70
2019-03-21T08:40:13.299Z,37.60
2019-03-21T08:42:46.236Z,37.50
2019-03-21T08:45:18.854Z,37.40
2019-03-21T08:47:53.706Z,37.40
2019-03-21T08:50:30.992Z,37.30
2019-03-21T08:53:05.751Z,37.20
2019-03-21T08:55:38.987Z,37.20
2019-03-21T08:58:14.979Z,37.30
2019-03-21T09:00:47.396Z,37.20
2019-03-21T09:03:22.455Z,37.30
2019-03-21T09:05:54.798Z,37.20
2019-03-21T09:08:27.621Z,37.20
2019-03-21T09:11:00.439Z,37.30
2019-03-21T09:13:33.102Z,37.30
2019-03-21T09:16:05.614Z,37.20
2019-03-21T09:18:37.347Z,37.20
2019-03-21T09:21:19.062Z,37.20
2019-03-21T09:23:45.607Z,37.20
2019-03-21T09:26:21.853Z,37.20
2019-03-21T09:28:53.540Z,37.20
2019-03-21T09:31:27.559Z,37.20
2019-03-21T09:34:02.282Z,37.20
2019-03-21T09:36:34.933Z,37.20
2019-03-21T09:39:09.899Z,37.20
2019-03-21T09:41:42.418Z,37.20
2019-03-21T09:44:14.932Z,37.10
2019-03-21T09:46:51.051Z,37.10
2019-03-21T09:49:21.379Z,37.00
2019-03-21T09:51:55.966Z,37.00
2019-03-21T09:54:28.863Z,36.90
2019-03-21T09:57:01.432Z,36.90
2019-03-21T09:59:34.086Z,36.80
2019-03-21T10:02:08.716Z,36.70
2019-03-21T10:04:41.511Z,36.60
2019-03-21T10:07:16.093Z,36.60
2019-03-21T10:09:50.703Z,36.50
2019-03-21T10:12:25.477Z,36.50
2019-03-21T10:14:56.003Z,36.40
2019-03-21T10:17:28.719Z,36.30
2019-03-21T10:20:01.523Z,36.30
2019-03-21T10:22:34.533Z,36.20
2019-03-21T10:25:07.123Z,36.10
2019-03-21T10:27:42.115Z,36.00
2019-03-21T10:30:17.336Z,35.90
2019-03-21T10:32:48.977Z,35.90
2019-03-21T10:35:22.155Z,35.80
2019-03-21T10:37:55.169Z,35.70
2019-03-21T10:40:27.903Z,35.60
2019-03-21T10:43:02.927Z,35.60
2019-03-21T10:45:36.194Z,35.60
2019-03-21T10:48:10.833Z,35.50
2019-03-21T10:50:44.211Z,35.50
2019-03-21T10:53:18.983Z,35.50
2019-03-21T10:55:53.575Z,35.50
2019-03-21T10:58:26.383Z,35.40
2019-03-21T11:01:00.712Z,35.40
2019-03-21T11:03:33.058Z,35.30
2019-03-21T11:06:06.091Z,35.30
2019-03-21T11:08:39.663Z,35.30
2019-03-21T11:11:15.145Z,35.30
2019-03-21T11:13:49.499Z,35.20
2019-03-21T11:16:22.240Z,35.20
2019-03-21T11:18:55.995Z,35.10
2019-03-21T11:21:30.310Z,35.10
2019-03-21T11:24:04.566Z,35.10
2019-03-21T11:26:40.461Z,35.00
2019-03-21T11:29:15.236Z,35.00
2019-03-21T11:31:46.807Z,35.00
2019-03-21T11:34:18.871Z,35.00
2019-03-21T11:36:51.995Z,34.90
2019-03-21T11:39:39.489Z,34.90
2019-03-21T11:42:06.189Z,34.90
2019-03-21T11:44:38.157Z,34.80
2019-03-21T11:47:09.715Z,34.80
2019-03-21T11:49:42.474Z,34.80
2019-03-21T11:52:18.551Z,34.80
2019-03-21T11:54:53.493Z,34.80
2019-03-21T11:57:26.732Z,34.70
2019-03-21T11:59:58.591Z,34.70
2019-03-21T12:02:31.310Z,34.60
2019-03-21T12:05:05.832Z,34.60
2019-03-21T12:07:45.473Z,34.60
2019-03-21T12:10:22.118Z,34.50
2019-03-21T12:13:05.906Z,34.50
2019-03-21T12:15:38.734Z,34.40
2019-03-21T12:18:11.428Z,34.40
2019-03-21T12:20:44.507Z,34.40
2019-03-21T12:23:16.982Z,34.40
2019-03-21T12:25:49.649Z,34.30
2019-03-21T12:28:22.482Z,34.30
2019-03-21T12:30:57.205Z,34.30
2019-03-21T12:33:31.615Z,34.20
2019-03-21T12:36:04.435Z,34.20
2019-03-21T12:38:36.092Z,34.20
2019-03-21T12:41:12.270Z,34.20
2019-03-21T12:43:44.783Z,34.20
2019-03-21T12:46:17.579Z,34.10
2019-03-21T12:48:51.519Z,34.10
2019-03-21T12:51:26.332Z,34.00
2019-03-21T12:54:00.648Z,34.00
2019-03-21T12:56:33.345Z,34.00
2019-03-21T12:59:07.896Z,33.90
2019-03-21T13:01:41.729Z,33.90
2019-03-21T13:04:14.320Z,33.90
2019-03-21T13:06:50.551Z,33.80
2019-03-21T13:09:22.736Z,33.80
2019-03-21T13:11:56.503Z,33.80
2019-03-21T13:14:29.166Z,33.80
2019-03-21T13:17:01.944Z,33.70
2019-03-21T13:19:38.105Z,33.70
2019-03-21T13:22:11.142Z,33.70
2019-03-21T13:24:45.482Z,33.70
2019-03-21T13:27:17.730Z,33.70
2019-03-21T13:29:52.775Z,33.60
2019-03-21T13:32:24.646Z,33.60
2019-03-21T13:35:00.392Z,33.60
2019-03-21T13:37:34.123Z,33.60
2019-03-21T13:40:06.829Z,33.60
2019-03-21T13:42:41.463Z,33.50
2019-03-21T13:45:14.380Z,33.60
2019-03-21T13:47:46.892Z,33.60
2019-03-21T13:50:19.739Z,33.60
2019-03-21T13:53:03.968Z,33.50
2019-03-21T13:55:25.359Z,33.50
2019-03-21T13:57:58.411Z,33.50
2019-03-21T14:00:31.122Z,33.50
2019-03-21T14:03:03.682Z,33.40
2019-03-21T14:05:37.494Z,33.40
2019-03-21T14:08:19.091Z,33.40
2019-03-21T14:10:51.895Z,33.30
2019-03-21T14:13:24.781Z,33.30
2019-03-21T14:15:58.070Z,33.30
2019-03-21T14:18:33.747Z,33.30
2019-03-21T14:21:08.594Z,33.20
2019-03-21T14:23:45.024Z,33.20
2019-03-21T14:26:18.304Z,33.10
2019-03-21T14:28:51.283Z,33.10
2019-03-21T14:31:27.122Z,33.00
2019-03-21T14:33:59.787Z,33.00
2019-03-21T14:36:36.805Z,32.90
2019-03-21T14:39:12.573Z,32.90
2019-03-21T14:41:48.203Z,32.80
2019-03-21T14:44:25.777Z,32.80
2019-03-21T14:46:58.533Z,32.80
2019-03-21T14:49:31.810Z,32.70
2019-03-21T14:52:04.752Z,32.70
2019-03-21T14:54:39.126Z,32.70
2019-03-21T14:57:14.769Z,32.60
2019-03-21T14:59:47.568Z,32.60
2019-03-21T15:02:21.282Z,32.60
2019-03-21T15:04:54.770Z,32.50
2019-03-21T15:07:31.035Z,32.50
2019-03-21T15:10:03.725Z,32.50
2019-03-21T15:12:36.528Z,32.40
2019-03-21T15:15:11.581Z,32.40
2019-03-21T15:17:48.715Z,32.40
2019-03-21T15:20:23.800Z,32.40
2019-03-21T15:22:57.141Z,32.40
2019-03-21T15:25:30.481Z,32.40
2019-03-21T15:28:03.963Z,32.30
2019-03-21T15:30:36.535Z,32.30
2019-03-21T15:33:13.421Z,32.30
2019-03-21T15:35:48.321Z,32.30
2019-03-21T15:38:22.398Z,32.30
2019-03-21T15:40:57.018Z,32.30
2019-03-21T15:43:31.001Z,32.30
2019-03-21T15:46:07.190Z,32.20
2019-03-21T15:48:39.903Z,32.20
2019-03-21T15:51:12.407Z,32.20
2019-03-21T15:53:54.740Z,32.20
2019-03-21T15:56:20.936Z,32.20
2019-03-21T15:58:53.816Z,32.20
2019-03-21T16:01:26.962Z,32.20
2019-03-21T16:04:04.660Z,32.10
2019-03-21T16:06:41.071Z,32.10
2019-03-21T16:09:18.162Z,32.10
2019-03-21T16:11:50.837Z,32.10
2019-03-21T16:14:22.463Z,32.00
2019-03-21T16:16:56.306Z,32.00
2019-03-21T16:19:28.888Z,32.00
2019-03-21T16:22:03.859Z,32.00
2019-03-21T16:24:38.583Z,32.00
2019-03-21T16:27:18.471Z,32.00
2019-03-21T16:29:53.501Z,32.00
2019-03-21T16:32:26.410Z,32.00
2019-03-21T16:34:59.089Z,32.00
2019-03-21T16:37:31.703Z,32.00
2019-03-21T16:40:04.800Z,32.00
2019-03-21T16:42:37.206Z,32.00
2019-03-21T16:45:11.748Z,32.00
2019-03-21T16:47:46.556Z,32.00
2019-03-21T16:50:31.834Z,32.00
2019-03-21T16:53:04.269Z,32.00
2019-03-21T16:55:36.807Z,32.00
2019-03-21T16:58:09.455Z,32.00
2019-03-21T17:00:42.091Z,32.00
2019-03-21T17:03:14.779Z,32.00
2019-03-21T17:05:49.780Z,32.00
2019-03-21T17:08:27.532Z,32.00
2019-03-21T17:11:02.369Z,32.00
2019-03-21T17:13:41.115Z,32.00
2019-03-21T17:16:15.573Z,32.00
2019-03-21T17:18:50.695Z,31.90
2019-03-21T17:21:22.874Z,31.90
2019-03-21T17:23:55.891Z,31.90
2019-03-21T17:26:28.664Z,31.90
2019-03-21T17:29:01.432Z,31.90
2019-03-21T17:31:37.195Z,31.90
2019-03-21T17:34:13.535Z,31.90
2019-03-21T17:36:49.668Z,31.90
2019-03-21T17:39:22.897Z,31.90
2019-03-21T17:41:56.313Z,31.90
2019-03-21T17:44:27.956Z,31.80
2019-03-21T17:47:05.489Z,31.80
2019-03-21T17:49:39.912Z,31.80
2019-03-21T17:52:16.027Z,31.80
2019-03-21T17:54:48.671Z,31.80
2019-03-21T17:57:33.704Z,31.80
2019-03-21T17:59:55.910Z,31.80
2019-03-21T18:02:30.614Z,31.80
2019-03-21T18:05:04.556Z,31.70
2019-03-21T18:07:38.971Z,31.70
2019-03-21T18:10:17.526Z,31.70
2019-03-21T18:12:50.229Z,31.60
2019-03-21T18:15:22.860Z,31.60
2019-03-21T18:17:57.345Z,31.60
2019-03-21T18:20:30.029Z,31.60
2019-03-21T18:23:04.612Z,31.50
2019-03-21T18:25:42.607Z,31.40
2019-03-21T18:28:16.568Z,31.40
2019-03-21T18:30:50.080Z,31.30
2019-03-21T18:33:23.674Z,31.30
2019-03-21T18:35:58.324Z,31.20
2019-03-21T18:38:33.368Z,31.00
2019-03-21T18:41:04.692Z,30.90
2019-03-21T18:43:39.325Z,30.70
2019-03-21T18:46:14.970Z,30.70
2019-03-21T18:48:48.608Z,30.50
2019-03-21T18:51:21.519Z,30.40
2019-03-21T18:53:56.640Z,30.30
2019-03-21T18:56:32.963Z,30.30
2019-03-21T18:59:07.593Z,30.20
2019-03-21T19:01:44.433Z,30.10
2019-03-21T19:04:17.200Z,30.00
2019-03-21T19:06:49.196Z,29.90
2019-03-21T19:09:21.668Z,29.80
2019-03-21T19:11:56.067Z,29.80
2019-03-21T19:14:31.230Z,29.80
2019-03-21T19:17:04.860Z,29.70
2019-03-21T19:19:37.679Z,29.70
2019-03-21T19:22:10.405Z,29.60
2019-03-21T19:24:42.415Z,29.60
2019-03-21T19:27:18.156Z,29.50
2019-03-21T19:29:52.549Z,29.50
2019-03-21T19:32:26.552Z,29.50
2019-03-21T19:35:03.923Z,29.50
2019-03-21T19:37:38.598Z,29.50
2019-03-21T19:40:12.090Z,29.40
2019-03-21T19:42:43.849Z,29.40
2019-03-21T19:45:17.204Z,29.40
2019-03-21T19:47:49.048Z,29.40
2019-03-21T19:50:24.679Z,29.30
2019-03-21T19:52:56.272Z,29.40
2019-03-21T19:55:31.402Z,29.40
2019-03-21T19:58:02.855Z,29.40
2019-03-21T20:00:35.297Z,29.30
2019-03-21T20:03:07.094Z,29.40
2019-03-21T20:05:41.863Z,29.30
2019-03-21T20:08:16.859Z,29.30
2019-03-21T20:10:51.884Z,29.30
2019-03-21T20:13:29.646Z,29.20
2019-03-21T20:16:04.119Z,29.20
2019-03-21T20:18:36.991Z,29.20
2019-03-21T20:21:12.223Z,29.10
2019-03-21T20:23:43.973Z,29.10
2019-03-21T20:26:17.575Z,29.10
2019-03-21T20:28:51.573Z,29.00
2019-03-21T20:31:24.418Z,29.00
2019-03-21T20:33:56.423Z,28.90
2019-03-21T20:36:30.776Z,28.90
2019-03-21T20:39:04.682Z,28.90
2019-03-21T20:41:37.519Z,28.90
2019-03-21T20:44:15.003Z,28.90
2019-03-21T20:46:43.767Z,28.90
2019-03-21T20:49:16.678Z,28.90
2019-03-21T20:51:50.919Z,28.90
2019-03-21T20:54:23.656Z,28.80
2019-03-21T20:56:55.607Z,28.80
2019-03-21T20:59:30.129Z,28.80
2019-03-21T21:02:03.231Z,28.70
2019-03-21T21:04:36.354Z,28.70
2019-03-21T21:07:09.224Z,28.70
2019-03-21T21:09:41.951Z,28.70
2019-03-21T21:12:14.845Z,28.70
2019-03-21T21:14:47.615Z,28.60
2019-03-21T21:17:20.436Z,28.60
2019-03-21T21:19:52.142Z,28.50
2019-03-21T21:22:23.938Z,28.50
2019-03-21T21:24:55.825Z,28.50
2019-03-21T21:27:28.680Z,28.40
2019-03-21T21:30:00.805Z,28.40
2019-03-21T21:32:32.551Z,28.30
2019-03-21T21:35:06.704Z,28.20
2019-03-21T21:37:40.146Z,28.20
2019-03-21T21:40:14.024Z,28.20
2019-03-21T21:42:49.764Z,28.20
2019-03-21T21:45:25.376Z,28.20
2019-03-21T21:47:58.092Z,28.20
2019-03-21T21:50:29.566Z,28.10
2019-03-21T21:53:01.061Z,28.00
2019-03-21T21:55:34.122Z,28.00
2019-03-21T21:58:05.843Z,28.00
2019-03-21T22:00:37.667Z,28.10
2019-03-21T22:03:12.823Z,28.10
2019-03-21T22:05:45.842Z,28.10
2019-03-21T22:08:20.179Z,28.10
2019-03-21T22:10:53.102Z,28.10
2019-03-21T22:13:25.803Z,28.10
2019-03-21T22:15:58.146Z,28.10
2019-03-21T22:18:33.443Z,28.10
2019-03-21T22:21:07.087Z,28.10
2019-03-21T22:23:39.860Z,28.10
2019-03-21T22:26:13.356Z,28.10
2019-03-21T22:28:46.430Z,28.00
2019-03-21T22:31:18.368Z,28.00
2019-03-21T22:33:53.258Z,28.00
2019-03-21T22:36:32.243Z,27.90
2019-03-21T22:39:04.872Z,27.80
2019-03-21T22:41:38.545Z,27.80
2019-03-21T22:44:11.963Z,27.70
2019-03-21T22:46:45.828Z,27.80
2019-03-21T22:49:29.968Z,27.70
2019-03-21T22:52:06.029Z,27.70
2019-03-21T22:54:40.751Z,27.70
2019-03-21T22:57:13.756Z,27.70
2019-03-21T22:59:51.788Z,27.60
2019-03-21T23:02:24.523Z,27.50
2019-03-21T23:04:59.079Z,27.40
2019-03-21T23:07:31.743Z,27.30
2019-03-21T23:10:04.423Z,27.30
2019-03-21T23:12:37.135Z,27.30
2019-03-21T23:15:15.804Z,27.20
2019-03-21T23:17:47.063Z,27.10
2019-03-21T23:20:22.576Z,27.10
2019-03-21T23:23:00.105Z,27.10
2019-03-21T23:25:32.821Z,27.10
2019-03-21T23:28:05.626Z,27.10
2019-03-21T23:30:40.423Z,27.10
2019-03-21T23:33:15.551Z,27.10
2019-03-21T23:35:48.221Z,27.10
2019-03-21T23:38:20.853Z,27.10
2019-03-21T23:40:55.450Z,27.20
2019-03-21T23:43:28.195Z,27.20
2019-03-21T23:46:01.433Z,27.20
2019-03-21T23:48:34.002Z,27.20
2019-03-21T23:51:05.664Z,27.10
2019-03-21T23:53:37.996Z,27.10
2019-03-21T23:56:09.589Z,27.00
2019-03-21T23:58:42.059Z,27.00
